sensor_id;sensor_type;location;lat;lon;timestamp;pressure;altitude;pressure_sealevel;temperature;humidity
56414;BME280;42318;48.452;19.526;2024-03-23T00:54:34;97925.75;;;21.31;56.41
56414;BME280;42318;48.452;19.526;2024-03-23T00:57:34;97927.41;;;21.32;56.84
56414;BME280;42318;48.452;19.526;2024-03-23T01:00:35;97914.88;;;21.31;56.49
56414;BME280;42318;48.452;19.526;2024-03-23T01:03:36;97913.78;;;21.32;56.34
56414;BME280;42318;48.452;19.526;2024-03-23T01:06:36;97898.78;;;21.24;56.46
56414;BME280;42318;48.452;19.526;2024-03-23T01:09:37;97914.59;;;21.33;56.43
56414;BME280;42318;48.452;19.526;2024-03-23T01:12:39;97905.59;;;21.32;56.51
56414;BME280;42318;48.452;19.526;2024-03-23T01:15:40;97905.34;;;21.28;56.49
56414;BME280;42318;48.452;19.526;2024-03-23T01:18:40;97895.81;;;21.26;56.55
56414;BME280;42318;48.452;19.526;2024-03-23T01:21:41;97904.78;;;21.31;56.12
56414;BME280;42318;48.452;19.526;2024-03-23T01:24:43;97897.44;;;21.27;56.47
56414;BME280;42318;48.452;19.526;2024-03-23T01:27:44;97904.78;;;21.31;56.47
56414;BME280;42318;48.452;19.526;2024-03-23T01:30:44;97902.34;;;21.30;56.29
56414;BME280;42318;48.452;19.526;2024-03-23T01:33:45;97887.88;;;21.24;56.21
56414;BME280;42318;48.452;19.526;2024-03-23T01:36:46;97895.50;;;21.33;56.25
56414;BME280;42318;48.452;19.526;2024-03-23T01:39:47;97890.34;;;21.31;56.34
56414;BME280;42318;48.452;19.526;2024-03-23T01:42:57;97892.25;;;21.30;56.15
56414;BME280;42318;48.452;19.526;2024-03-23T01:45:58;97887.63;;;21.26;56.04
56414;BME280;42318;48.452;19.526;2024-03-23T01:48:59;97889.25;;;21.32;56.22
56414;BME280;42318;48.452;19.526;2024-03-23T01:52:00;97882.72;;;21.28;56.25
56414;BME280;42318;48.452;19.526;2024-03-23T01:55:01;97866.38;;;21.23;56.50
56414;BME280;42318;48.452;19.526;2024-03-23T01:58:02;97892.53;;;21.29;56.29
56414;BME280;42318;48.452;19.526;2024-03-23T02:01:02;97875.63;;;21.32;56.35
56414;BME280;42318;48.452;19.526;2024-03-23T02:04:03;97868.56;;;21.26;56.23
56414;BME280;42318;48.452;19.526;2024-03-23T02:07:06;97885.97;;;21.30;56.10
56414;BME280;42318;48.452;19.526;2024-03-23T02:10:08;97877.53;;;21.31;56.01
56414;BME280;42318;48.452;19.526;2024-03-23T02:13:10;97877.00;;;21.29;56.17
56414;BME280;42318;48.452;19.526;2024-03-23T02:16:10;97878.34;;;21.32;55.87
56414;BME280;42318;48.452;19.526;2024-03-23T02:19:11;97873.47;;;21.29;56.10
56414;BME280;42318;48.452;19.526;2024-03-23T02:22:12;97879.72;;;21.29;55.87
56414;BME280;42318;48.452;19.526;2024-03-23T02:25:12;97870.72;;;21.29;56.28
56414;BME280;42318;48.452;19.526;2024-03-23T02:28:13;97871.00;;;21.27;56.24
56414;BME280;42318;48.452;19.526;2024-03-23T02:31:13;97862.03;;;21.27;56.03
56414;BME280;42318;48.452;19.526;2024-03-23T02:34:15;97861.47;;;21.30;55.77
56414;BME280;42318;48.452;19.526;2024-03-23T02:37:16;97860.94;;;21.28;56.05
56414;BME280;42318;48.452;19.526;2024-03-23T02:40:17;97861.50;;;21.25;56.21
56414;BME280;42318;48.452;19.526;2024-03-23T02:43:18;97852.75;;;21.28;56.09
56414;BME280;42318;48.452;19.526;2024-03-23T02:46:19;97853.84;;;21.27;55.72
56414;BME280;42318;48.452;19.526;2024-03-23T02:49:19;97847.59;;;21.26;55.91
56414;BME280;42318;48.452;19.526;2024-03-23T02:52:21;97849.50;;;21.26;55.89
56414;BME280;42318;48.452;19.526;2024-03-23T02:55:22;97851.13;;;21.27;55.77
56414;BME280;42318;48.452;19.526;2024-03-23T02:58:23;97842.91;;;21.22;56.23
56414;BME280;42318;48.452;19.526;2024-03-23T03:01:23;97839.69;;;21.25;55.99
56414;BME280;42318;48.452;19.526;2024-03-23T03:04:24;97833.41;;;21.24;56.11
56414;BME280;42318;48.452;19.526;2024-03-23T03:07:25;97827.41;;;21.27;55.79
56414;BME280;42318;48.452;19.526;2024-03-23T03:10:26;97822.78;;;21.28;56.10
56414;BME280;42318;48.452;19.526;2024-03-23T03:13:26;97819.53;;;21.26;55.84
56414;BME280;42318;48.452;19.526;2024-03-23T03:16:27;97820.06;;;21.28;55.85
56414;BME280;42318;48.452;19.526;2024-03-23T03:19:27;97805.88;;;21.21;55.59
56414;BME280;42318;48.452;19.526;2024-03-23T03:22:28;97795.81;;;21.16;55.73
56414;BME280;42318;48.452;19.526;2024-03-23T03:25:29;97811.88;;;21.28;56.02
56414;BME280;42318;48.452;19.526;2024-03-23T03:28:31;97809.44;;;21.26;55.67
56414;BME280;42318;48.452;19.526;2024-03-23T03:31:32;97805.63;;;21.27;56.03
56414;BME280;42318;48.452;19.526;2024-03-23T03:34:33;97804.81;;;21.27;55.66
56414;BME280;42318;48.452;19.526;2024-03-23T03:37:33;97791.19;;;21.27;55.90
56414;BME280;42318;48.452;19.526;2024-03-23T03:40:35;97789.81;;;21.24;55.64
56414;BME280;42318;48.452;19.526;2024-03-23T03:43:35;97796.91;;;21.25;55.46
56414;BME280;42318;48.452;19.526;2024-03-23T03:46:36;97791.47;;;21.25;55.55
56414;BME280;42318;48.452;19.526;2024-03-23T03:49:37;97794.44;;;21.24;55.89
56414;BME280;42318;48.452;19.526;2024-03-23T03:52:37;97777.31;;;21.13;55.98
56414;BME280;42318;48.452;19.526;2024-03-23T03:55:38;97792.28;;;21.26;55.38
56414;BME280;42318;48.452;19.526;2024-03-23T03:58:39;97797.97;;;21.24;55.58
56414;BME280;42318;48.452;19.526;2024-03-23T04:01:40;97792.81;;;21.23;55.58
56414;BME280;42318;48.452;19.526;2024-03-23T04:04:41;97791.16;;;21.22;55.72
56414;BME280;42318;48.452;19.526;2024-03-23T04:07:42;97772.91;;;21.17;55.97
56414;BME280;42318;48.452;19.526;2024-03-23T04:10:42;97787.34;;;21.23;55.89
56414;BME280;42318;48.452;19.526;2024-03-23T04:13:43;97793.38;;;21.25;55.83
56414;BME280;42318;48.452;19.526;2024-03-23T04:16:44;97792.25;;;21.21;55.80
56414;BME280;42318;48.452;19.526;2024-03-23T04:19:44;97787.34;;;21.18;55.67
56414;BME280;42318;48.452;19.526;2024-03-23T04:22:45;97791.97;;;21.22;55.46
56414;BME280;42318;48.452;19.526;2024-03-23T04:25:46;97784.88;;;21.21;55.92
56414;BME280;42318;48.452;19.526;2024-03-23T04:28:47;97785.44;;;21.23;55.72
56414;BME280;42318;48.452;19.526;2024-03-23T04:31:47;97791.16;;;21.22;55.65
56414;BME280;42318;48.452;19.526;2024-03-23T04:34:48;97789.53;;;21.21;55.58
56414;BME280;42318;48.452;19.526;2024-03-23T04:37:49;97780.25;;;21.22;55.73
56414;BME280;42318;48.452;19.526;2024-03-23T04:40:57;97782.44;;;21.20;55.80
56414;BME280;42318;48.452;19.526;2024-03-23T04:43:58;97780.25;;;21.22;55.83
56414;BME280;42318;48.452;19.526;2024-03-23T04:47:00;97778.91;;;21.19;55.72
56414;BME280;42318;48.452;19.526;2024-03-23T04:50:01;97777.81;;;21.20;55.58
56414;BME280;42318;48.452;19.526;2024-03-23T04:53:02;97777.03;;;21.15;55.78
56414;BME280;42318;48.452;19.526;2024-03-23T04:56:03;97778.91;;;21.19;55.67
56414;BME280;42318;48.452;19.526;2024-03-23T04:59:05;97768.81;;;21.20;55.77
56414;BME280;42318;48.452;19.526;2024-03-23T05:02:05;97767.72;;;21.21;55.50
56414;BME280;42318;48.452;19.526;2024-03-23T05:05:06;97768.53;;;21.21;55.47
56414;BME280;42318;48.452;19.526;2024-03-23T05:08:07;97762.00;;;21.22;55.44
56414;BME280;42318;48.452;19.526;2024-03-23T05:11:08;97765.00;;;21.21;55.41
56414;BME280;42318;48.452;19.526;2024-03-23T05:14:09;97764.72;;;21.22;55.93
56414;BME280;42318;48.452;19.526;2024-03-23T05:17:09;97762.28;;;21.21;56.28
56414;BME280;42318;48.452;19.526;2024-03-23T05:20:10;97770.44;;;21.21;56.52
56414;BME280;42318;48.452;19.526;2024-03-23T05:23:13;97754.66;;;21.23;56.12
56414;BME280;42318;48.452;19.526;2024-03-23T05:26:14;97740.50;;;21.16;56.13
56414;BME280;42318;48.452;19.526;2024-03-23T05:29:15;97750.84;;;21.24;56.10
56414;BME280;42318;48.452;19.526;2024-03-23T05:32:17;97750.03;;;21.23;56.32
56414;BME280;42318;48.452;19.526;2024-03-23T05:35:18;97748.13;;;21.24;56.33
56414;BME280;42318;48.452;19.526;2024-03-23T05:38:18;97749.47;;;21.21;56.50
56414;BME280;42318;48.452;19.526;2024-03-23T05:41:20;97754.09;;;21.21;56.36
56414;BME280;42318;48.452;19.526;2024-03-23T05:44:22;97737.25;;;21.14;56.92
56414;BME280;42318;48.452;19.526;2024-03-23T05:47:23;97732.88;;;21.18;56.92
56414;BME280;42318;48.452;19.526;2024-03-23T05:50:23;97734.22;;;21.20;57.07
56414;BME280;42318;48.452;19.526;2024-03-23T05:53:24;97734.22;;;21.20;57.05
56414;BME280;42318;48.452;19.526;2024-03-23T05:56:25;97722.53;;;21.15;57.17
56414;BME280;42318;48.452;19.526;2024-03-23T05:59:29;97714.91;;;21.17;57.10
56414;BME280;42318;48.452;19.526;2024-03-23T06:02:29;97737.22;;;21.24;57.22
56414;BME280;42318;48.452;19.526;2024-03-23T06:05:30;97735.59;;;21.23;57.69
56414;BME280;42318;48.452;19.526;2024-03-23T06:08:30;97725.75;;;21.22;57.58
56414;BME280;42318;48.452;19.526;2024-03-23T06:11:31;97739.13;;;21.23;57.46
56414;BME280;42318;48.452;19.526;2024-03-23T06:14:32;97741.59;;;21.25;57.12
56414;BME280;42318;48.452;19.526;2024-03-23T06:17:33;97747.06;;;21.25;57.26
56414;BME280;42318;48.452;19.526;2024-03-23T06:20:34;97733.69;;;21.23;57.84
56414;BME280;42318;48.452;19.526;2024-03-23T06:23:35;97731.25;;;21.27;57.44
56414;BME280;42318;48.452;19.526;2024-03-23T06:26:35;97729.31;;;21.27;57.89
56414;BME280;42318;48.452;19.526;2024-03-23T06:29:36;97733.16;;;21.26;58.60
56414;BME280;42318;48.452;19.526;2024-03-23T06:32:37;97726.88;;;21.26;58.18
56414;BME280;42318;48.452;19.526;2024-03-23T06:35:37;97716.53;;;21.18;58.53
56414;BME280;42318;48.452;19.526;2024-03-23T06:38:38;97724.41;;;21.24;58.36
56414;BME280;42318;48.452;19.526;2024-03-23T06:41:39;97731.25;;;21.27;58.96
56414;BME280;42318;48.452;19.526;2024-03-23T06:44:39;97726.06;;;21.25;58.76
56414;BME280;42318;48.452;19.526;2024-03-23T06:47:40;97732.59;;;21.24;58.90
56414;BME280;42318;48.452;19.526;2024-03-23T06:50:41;97726.31;;;21.29;59.43
56414;BME280;42318;48.452;19.526;2024-03-23T06:53:42;97723.84;;;21.33;59.69
56414;BME280;42318;48.452;19.526;2024-03-23T06:56:44;97720.84;;;21.34;59.38
56414;BME280;42318;48.452;19.526;2024-03-23T06:59:44;97706.41;;;21.34;59.42
56414;BME280;42318;48.452;19.526;2024-03-23T07:02:45;97706.16;;;21.30;59.29
56414;BME280;42318;48.452;19.526;2024-03-23T07:05:46;97701.75;;;21.34;59.31
56414;BME280;42318;48.452;19.526;2024-03-23T07:08:46;97694.94;;;21.37;59.23
56414;BME280;42318;48.452;19.526;2024-03-23T07:11:47;97699.00;;;21.39;60.17
56414;BME280;42318;48.452;19.526;2024-03-23T07:14:48;97695.50;;;21.34;60.29
56414;BME280;42318;48.452;19.526;2024-03-23T07:17:48;97684.34;;;21.30;59.66
56414;BME280;42318;48.452;19.526;2024-03-23T07:20:54;97698.72;;;21.41;60.04
56414;BME280;42318;48.452;19.526;2024-03-23T07:23:55;97697.09;;;21.40;59.90
56414;BME280;42318;48.452;19.526;2024-03-23T07:26:55;97689.75;;;21.35;59.68
56414;BME280;42318;48.452;19.526;2024-03-23T07:29:58;97693.56;;;21.39;60.80
56414;BME280;42318;48.452;19.526;2024-03-23T07:32:58;97690.50;;;21.46;61.11
56414;BME280;42318;48.452;19.526;2024-03-23T07:35:59;97688.88;;;21.45;61.34
56414;BME280;42318;48.452;19.526;2024-03-23T07:39:00;97686.38;;;21.48;60.50
56414;BME280;42318;48.452;19.526;2024-03-23T07:42:01;97675.78;;;21.47;61.77
56414;BME280;42318;48.452;19.526;2024-03-23T07:45:01;97665.69;;;21.47;62.02
56414;BME280;42318;48.452;19.526;2024-03-23T07:48:02;97662.16;;;21.47;62.95
56414;BME280;42318;48.452;19.526;2024-03-23T07:51:06;97663.50;;;21.49;63.41
56414;BME280;42318;48.452;19.526;2024-03-23T07:54:07;97649.84;;;21.49;63.46
56414;BME280;42318;48.452;19.526;2024-03-23T07:57:07;97655.56;;;21.53;63.75
56414;BME280;42318;48.452;19.526;2024-03-23T08:00:08;97642.75;;;21.53;64.31
56414;BME280;42318;48.452;19.526;2024-03-23T08:03:09;97655.25;;;21.54;64.24
56414;BME280;42318;48.452;19.526;2024-03-23T08:06:17;97648.44;;;21.57;64.63
56414;BME280;42318;48.452;19.526;2024-03-23T08:09:19;97649.53;;;21.56;65.11
56414;BME280;42318;48.452;19.526;2024-03-23T08:12:20;97644.88;;;21.56;65.63
56414;BME280;42318;48.452;19.526;2024-03-23T08:15:21;97654.41;;;21.59;65.56
56414;BME280;42318;48.452;19.526;2024-03-23T08:18:22;97644.59;;;21.58;65.70
56414;BME280;42318;48.452;19.526;2024-03-23T08:21:22;97646.50;;;21.57;65.30
56414;BME280;42318;48.452;19.526;2024-03-23T08:24:23;97638.88;;;21.59;65.00
56414;BME280;42318;48.452;19.526;2024-03-23T08:27:23;97642.41;;;21.60;65.26
56414;BME280;42318;48.452;19.526;2024-03-23T08:30:25;97625.81;;;21.56;64.33
56414;BME280;42318;48.452;19.526;2024-03-23T08:33:25;97629.88;;;21.59;63.41
56414;BME280;42318;48.452;19.526;2024-03-23T08:36:26;97626.91;;;21.55;62.49
56414;BME280;42318;48.452;19.526;2024-03-23T08:39:26;97630.97;;;21.58;62.44
56414;BME280;42318;48.452;19.526;2024-03-23T08:42:27;97615.44;;;21.58;62.80
56414;BME280;42318;48.452;19.526;2024-03-23T08:45:28;97621.41;;;21.60;62.68
56414;BME280;42318;48.452;19.526;2024-03-23T08:48:28;97615.97;;;21.60;62.30
56414;BME280;42318;48.452;19.526;2024-03-23T08:51:29;97616.25;;;21.59;62.82
56414;BME280;42318;48.452;19.526;2024-03-23T08:54:30;97613.81;;;21.57;62.46
56414;BME280;42318;48.452;19.526;2024-03-23T08:57:31;97607.84;;;21.55;62.49
56414;BME280;42318;48.452;19.526;2024-03-23T09:00:32;97599.94;;;21.54;61.98
56414;BME280;42318;48.452;19.526;2024-03-23T09:03:33;97592.34;;;21.51;62.39
56414;BME280;42318;48.452;19.526;2024-03-23T09:06:34;97587.94;;;21.55;62.43
56414;BME280;42318;48.452;19.526;2024-03-23T09:09:38;97587.38;;;21.58;63.31
56414;BME280;42318;48.452;19.526;2024-03-23T09:12:39;97575.16;;;21.50;62.51
56414;BME280;42318;48.452;19.526;2024-03-23T09:15:50;97573.50;;;21.54;62.37
56414;BME280;42318;48.452;19.526;2024-03-23T09:18:52;97566.13;;;21.55;62.07
56414;BME280;42318;48.452;19.526;2024-03-23T09:21:53;97564.50;;;21.54;62.11
56414;BME280;42318;48.452;19.526;2024-03-23T09:24:54;97563.41;;;21.55;61.83
56414;BME280;42318;48.452;19.526;2024-03-23T09:27:54;97572.97;;;21.52;62.34
56414;BME280;42318;48.452;19.526;2024-03-23T09:30:55;97566.94;;;21.55;62.97
56414;BME280;42318;48.452;19.526;2024-03-23T09:33:55;97569.16;;;21.53;62.35
56414;BME280;42318;48.452;19.526;2024-03-23T09:36:56;97558.81;;;21.50;61.77
56414;BME280;42318;48.452;19.526;2024-03-23T09:39:56;97562.88;;;21.53;59.77
56414;BME280;42318;48.452;19.526;2024-03-23T09:42:57;97552.78;;;21.53;59.89
56414;BME280;42318;48.452;19.526;2024-03-23T09:45:58;97555.00;;;21.51;59.69
56414;BME280;42318;48.452;19.526;2024-03-23T09:48:59;97545.47;;;21.49;59.17
56414;BME280;42318;48.452;19.526;2024-03-23T09:52:00;97549.53;;;21.51;59.34
56414;BME280;42318;48.452;19.526;2024-03-23T09:55:03;97545.19;;;21.50;59.32
56414;BME280;42318;48.452;19.526;2024-03-23T09:58:04;97545.72;;;21.52;59.48
56414;BME280;42318;48.452;19.526;2024-03-23T10:01:07;97541.38;;;21.51;59.46
56414;BME280;42318;48.452;19.526;2024-03-23T10:04:07;97533.47;;;21.50;59.55
56414;BME280;42318;48.452;19.526;2024-03-23T10:07:12;97530.75;;;21.50;59.27
56414;BME280;42318;48.452;19.526;2024-03-23T10:10:15;97533.75;;;21.48;59.50
56414;BME280;42318;48.452;19.526;2024-03-23T10:13:27;97523.38;;;21.50;59.57
56414;BME280;42318;48.452;19.526;2024-03-23T10:16:27;97516.31;;;21.49;59.27
56414;BME280;42318;48.452;19.526;2024-03-23T10:19:31;97514.41;;;21.50;59.18
56414;BME280;42318;48.452;19.526;2024-03-23T10:22:37;97507.09;;;21.45;59.67
56414;BME280;42318;48.452;19.526;2024-03-23T10:25:38;97511.97;;;21.48;59.43
56414;BME280;42318;48.452;19.526;2024-03-23T10:28:57;97506.03;;;21.41;59.49
56414;BME280;42318;48.452;19.526;2024-03-23T10:32:11;97498.34;;;21.48;59.36
56414;BME280;42318;48.452;19.526;2024-03-23T10:38:17;97489.34;;;21.48;59.17
56414;BME280;42318;48.452;19.526;2024-03-23T10:41:21;97480.88;;;21.49;58.92
56414;BME280;42318;48.452;19.526;2024-03-23T10:44:21;97471.09;;;21.48;58.94
56414;BME280;42318;48.452;19.526;2024-03-23T10:47:25;97468.34;;;21.48;58.93
56414;BME280;42318;48.452;19.526;2024-03-23T10:50:26;97461.81;;;21.49;59.19
56414;BME280;42318;48.452;19.526;2024-03-23T10:53:28;97464.53;;;21.49;58.82
56414;BME280;42318;48.452;19.526;2024-03-23T10:56:30;97460.69;;;21.50;58.84
56414;BME280;42318;48.452;19.526;2024-03-23T10:59:35;97465.63;;;21.48;58.85
56414;BME280;42318;48.452;19.526;2024-03-23T11:02:37;97453.16;;;21.42;58.83
56414;BME280;42318;48.452;19.526;2024-03-23T11:05:38;97462.38;;;21.46;58.79
56414;BME280;42318;48.452;19.526;2024-03-23T11:08:40;97453.91;;;21.48;58.92
56414;BME280;42318;48.452;19.526;2024-03-23T11:11:42;97453.63;;;21.49;58.59
56414;BME280;42318;48.452;19.526;2024-03-23T11:14:43;97444.63;;;21.49;58.84
56414;BME280;42318;48.452;19.526;2024-03-23T11:18:06;97438.38;;;21.48;58.87
56414;BME280;42318;48.452;19.526;2024-03-23T11:21:08;97437.84;;;21.46;58.56
56414;BME280;42318;48.452;19.526;2024-03-23T11:24:13;97434.03;;;21.47;59.08
56414;BME280;42318;48.452;19.526;2024-03-23T11:27:18;97410.97;;;21.40;59.04
56414;BME280;42318;48.452;19.526;2024-03-23T11:30:20;97411.78;;;21.40;58.96
56414;BME280;42318;48.452;19.526;2024-03-23T11:33:23;97406.78;;;21.47;59.09
56414;BME280;42318;48.452;19.526;2024-03-23T11:36:24;97400.53;;;21.47;59.22
56414;BME280;42318;48.452;19.526;2024-03-23T11:39:25;97387.78;;;21.42;59.46
56414;BME280;42318;48.452;19.526;2024-03-23T11:42:26;97385.28;;;21.46;59.30
56414;BME280;42318;48.452;19.526;2024-03-23T11:45:27;97383.34;;;21.46;59.24
56414;BME280;42318;48.452;19.526;2024-03-23T11:48:27;97384.16;;;21.47;59.00
56414;BME280;42318;48.452;19.526;2024-03-23T11:51:29;97375.47;;;21.45;59.42
56414;BME280;42318;48.452;19.526;2024-03-23T11:54:35;97371.34;;;21.47;58.83
56414;BME280;42318;48.452;19.526;2024-03-23T11:57:35;97370.84;;;21.45;59.10
56414;BME280;42318;48.452;19.526;2024-03-23T12:00:36;97358.59;;;21.43;59.03
56414;BME280;42318;48.452;19.526;2024-03-23T12:03:37;97351.81;;;21.40;55.92
56414;BME280;42318;48.452;19.526;2024-03-23T12:06:38;97345.56;;;21.40;58.72
56414;BME280;42318;48.452;19.526;2024-03-23T12:09:40;97339.22;;;21.44;58.52
56414;BME280;42318;48.452;19.526;2024-03-23T12:12:40;97331.41;;;21.38;58.54
56414;BME280;42318;48.452;19.526;2024-03-23T12:15:41;97324.28;;;21.42;58.82
56414;BME280;42318;48.452;19.526;2024-03-23T12:18:43;97324.00;;;21.43;58.76
56414;BME280;42318;48.452;19.526;2024-03-23T12:21:44;97322.97;;;21.39;59.21
56414;BME280;42318;48.452;19.526;2024-03-23T12:24:45;97302.31;;;21.33;59.04
56414;BME280;42318;48.452;19.526;2024-03-23T12:27:46;97310.94;;;21.40;59.09
56414;BME280;42318;48.452;19.526;2024-03-23T12:30:46;97309.84;;;21.41;59.05
56414;BME280;42318;48.452;19.526;2024-03-23T12:33:47;97296.50;;;21.40;59.35
56414;BME280;42318;48.452;19.526;2024-03-23T12:36:47;97280.53;;;21.33;59.61
56414;BME280;42318;48.452;19.526;2024-03-23T12:39:48;97264.69;;;21.35;59.09
56414;BME280;42318;48.452;19.526;2024-03-23T12:42:49;97274.41;;;21.41;59.14
56414;BME280;42318;48.452;19.526;2024-03-23T12:45:50;97283.41;;;21.42;59.20
56414;BME280;42318;48.452;19.526;2024-03-23T12:48:50;97273.84;;;21.44;59.75
56414;BME280;42318;48.452;19.526;2024-03-23T12:51:56;97269.50;;;21.43;59.69
56414;BME280;42318;48.452;19.526;2024-03-23T12:54:58;97265.38;;;21.46;59.66
56414;BME280;42318;48.452;19.526;2024-03-23T12:57:58;97251.53;;;21.42;59.14
56414;BME280;42318;48.452;19.526;2024-03-23T13:00:59;97247.69;;;21.43;59.14
56414;BME280;42318;48.452;19.526;2024-03-23T13:04:00;97246.88;;;21.43;59.53
56414;BME280;42318;48.452;19.526;2024-03-23T13:07:01;97249.09;;;21.41;59.30
56414;BME280;42318;48.452;19.526;2024-03-23T13:10:02;97237.09;;;21.42;59.56
56414;BME280;42318;48.452;19.526;2024-03-23T13:13:03;97229.22;;;21.40;59.73
56414;BME280;42318;48.452;19.526;2024-03-23T13:16:04;97218.31;;;21.40;59.58
56414;BME280;42318;48.452;19.526;2024-03-23T13:19:05;97220.22;;;21.40;59.32
56414;BME280;42318;48.452;19.526;2024-03-23T13:22:06;97207.91;;;21.42;59.55
56414;BME280;42318;48.452;19.526;2024-03-23T13:25:07;97213.28;;;21.47;58.83
56414;BME280;42318;48.452;19.526;2024-03-23T13:28:08;97198.03;;;21.46;59.17
56414;BME280;42318;48.452;19.526;2024-03-23T13:31:10;97188.16;;;21.50;58.70
56414;BME280;42318;48.452;19.526;2024-03-23T13:34:10;97183.03;;;21.49;58.96
56414;BME280;42318;48.452;19.526;2024-03-23T13:37:11;97181.78;;;21.41;59.36
56414;BME280;42318;48.452;19.526;2024-03-23T13:40:12;97183.03;;;21.49;58.76
56414;BME280;42318;48.452;19.526;2024-03-23T13:43:12;97176.84;;;21.43;58.98
56414;BME280;42318;48.452;19.526;2024-03-23T13:46:13;97161.81;;;21.46;58.60
56414;BME280;42318;48.452;19.526;2024-03-23T13:49:28;97161.50;;;21.47;59.43
56414;BME280;42318;48.452;19.526;2024-03-23T13:52:29;97154.97;;;21.48;59.50
56414;BME280;42318;48.452;19.526;2024-03-23T13:55:31;97154.44;;;21.46;59.44
56414;BME280;42318;48.452;19.526;2024-03-23T13:58:32;97157.69;;;21.48;59.17
56414;BME280;42318;48.452;19.526;2024-03-23T14:01:33;97156.28;;;21.51;59.21
56414;BME280;42318;48.452;19.526;2024-03-23T14:04:34;97163.34;;;21.52;59.05
56414;BME280;42318;48.452;19.526;2024-03-23T14:07:34;97162.03;;;21.49;58.99
56414;BME280;42318;48.452;19.526;2024-03-23T14:10:36;97160.41;;;21.48;59.36
56414;BME280;42318;48.452;19.526;2024-03-23T14:13:37;97151.44;;;21.48;59.48
56414;BME280;42318;48.452;19.526;2024-03-23T14:16:38;97152.81;;;21.45;59.21
56414;BME280;42318;48.452;19.526;2024-03-23T14:19:39;97151.22;;;21.44;59.17
56414;BME280;42318;48.452;19.526;2024-03-23T14:22:40;97140.31;;;21.44;59.48
56414;BME280;42318;48.452;19.526;2024-03-23T14:25:41;97139.72;;;21.47;59.15
56414;BME280;42318;48.452;19.526;2024-03-23T14:28:42;97136.19;;;21.47;59.28
56414;BME280;42318;48.452;19.526;2024-03-23T14:31:43;97130.44;;;21.48;59.23
56414;BME280;42318;48.452;19.526;2024-03-23T14:34:44;97119.53;;;21.48;59.09
56414;BME280;42318;48.452;19.526;2024-03-23T14:37:44;97122.25;;;21.48;59.19
56414;BME280;42318;48.452;19.526;2024-03-23T14:40:47;97114.09;;;21.48;59.42
56414;BME280;42318;48.452;19.526;2024-03-23T14:43:48;97114.88;;;21.49;59.28
56414;BME280;42318;48.452;19.526;2024-03-23T14:46:50;97110.84;;;21.46;59.18
56414;BME280;42318;48.452;19.526;2024-03-23T14:49:50;97109.22;;;21.45;59.10
56414;BME280;42318;48.452;19.526;2024-03-23T14:52:51;97110.53;;;21.48;58.96
56414;BME280;42318;48.452;19.526;2024-03-23T14:55:54;97093.38;;;21.47;59.09
56414;BME280;42318;48.452;19.526;2024-03-23T14:58:55;97097.81;;;21.43;58.80
56414;BME280;42318;48.452;19.526;2024-03-23T15:01:56;97100.97;;;21.50;59.18
56414;BME280;42318;48.452;19.526;2024-03-23T15:04:58;97100.97;;;21.50;59.28
56414;BME280;42318;48.452;19.526;2024-03-23T15:07:59;97088.53;;;21.44;58.97
56414;BME280;42318;48.452;19.526;2024-03-23T15:11:00;97100.47;;;21.48;59.04
56414;BME280;42318;48.452;19.526;2024-03-23T15:14:05;97100.47;;;21.48;59.22
56414;BME280;42318;48.452;19.526;2024-03-23T15:17:07;97096.13;;;21.47;59.31
56414;BME280;42318;48.452;19.526;2024-03-23T15:20:09;97085.72;;;21.49;59.14
56414;BME280;42318;48.452;19.526;2024-03-23T15:23:12;97087.84;;;21.52;59.27
56414;BME280;42318;48.452;19.526;2024-03-23T15:26:12;97086.22;;;21.51;59.48
56414;BME280;42318;48.452;19.526;2024-03-23T15:29:13;97077.25;;;21.51;59.20
56414;BME280;42318;48.452;19.526;2024-03-23T15:32:17;97065.63;;;21.45;59.08
56414;BME280;42318;48.452;19.526;2024-03-23T15:35:18;97074.00;;;21.49;59.26
56414;BME280;42318;48.452;19.526;2024-03-23T15:38:23;97069.47;;;21.44;59.03
56414;BME280;42318;48.452;19.526;2024-03-23T15:41:24;97067.25;;;21.46;59.06
56414;BME280;42318;48.452;19.526;2024-03-23T15:44:25;97067.25;;;21.46;59.15
56414;BME280;42318;48.452;19.526;2024-03-23T15:47:25;97060.19;;;21.45;59.15
56414;BME280;42318;48.452;19.526;2024-03-23T15:50:26;97055.03;;;21.44;58.95
56414;BME280;42318;48.452;19.526;2024-03-23T15:53:27;97053.13;;;21.44;59.26
56414;BME280;42318;48.452;19.526;2024-03-23T15:56:31;97044.94;;;21.44;59.16
56414;BME280;42318;48.452;19.526;2024-03-23T15:59:33;97046.56;;;21.45;59.37
56414;BME280;42318;48.452;19.526;2024-03-23T16:02:33;97039.69;;;21.48;59.63
56414;BME280;42318;48.452;19.526;2024-03-23T16:05:34;97042.63;;;21.51;59.66
56414;BME280;42318;48.452;19.526;2024-03-23T16:08:35;97046.16;;;21.52;60.35
56414;BME280;42318;48.452;19.526;2024-03-23T16:11:36;97042.31;;;21.53;60.01
56414;BME280;42318;48.452;19.526;2024-03-23T16:14:36;97041.31;;;21.49;59.91
56414;BME280;42318;48.452;19.526;2024-03-23T16:17:40;97038.06;;;21.47;59.80
56414;BME280;42318;48.452;19.526;2024-03-23T16:20:41;97029.41;;;21.45;59.60
56414;BME280;42318;48.452;19.526;2024-03-23T16:23:42;97019.91;;;21.42;59.58
56414;BME280;42318;48.452;19.526;2024-03-23T16:26:44;97025.25;;;21.47;59.66
56414;BME280;42318;48.452;19.526;2024-03-23T16:29:46;97028.50;;;21.49;60.27
56414;BME280;42318;48.452;19.526;2024-03-23T16:32:49;97019.81;;;21.47;59.84
56414;BME280;42318;48.452;19.526;2024-03-23T16:36:03;97015.47;;;21.46;60.18
56414;BME280;42318;48.452;19.526;2024-03-23T16:39:10;97016.88;;;21.44;59.54
56414;BME280;42318;48.452;19.526;2024-03-23T16:42:10;97023.44;;;21.43;60.14
56414;BME280;42318;48.452;19.526;2024-03-23T16:45:11;97028.09;;;21.42;59.77